sensor_id;sensor_type;location;lat;lon;timestamp;P1;durP1;ratioP1;P2;durP2;ratioP2
37657;SDS011;23500;53.268;8.308;2024-02-23T00:02:17;1.77;;;1.20;;
37657;SDS011;23500;53.268;8.308;2024-02-23T00:04:43;2.55;;;1.40;;
37657;SDS011;23500;53.268;8.308;2024-02-23T00:07:09;1.80;;;1.33;;
37657;SDS011;23500;53.268;8.308;2024-02-23T00:09:35;2.17;;;1.48;;
37657;SDS011;23500;53.268;8.308;2024-02-23T00:12:01;1.85;;;1.35;;
37657;SDS011;23500;53.268;8.308;2024-02-23T00:14:27;1.27;;;1.10;;
37657;SDS011;23500;53.268;8.308;2024-02-23T00:16:53;2.55;;;1.50;;
37657;SDS011;23500;53.268;8.308;2024-02-23T00:19:19;2.65;;;1.30;;
37657;SDS011;23500;53.268;8.308;2024-02-23T00:21:45;4.10;;;1.40;;
37657;SDS011;23500;53.268;8.308;2024-02-23T00:24:15;2.10;;;1.35;;
37657;SDS011;23500;53.268;8.308;2024-02-23T00:26:41;1.98;;;1.20;;
37657;SDS011;23500;53.268;8.308;2024-02-23T00:29:07;1.65;;;1.20;;
37657;SDS011;23500;53.268;8.308;2024-02-23T00:31:34;3.08;;;1.40;;
37657;SDS011;23500;53.268;8.308;2024-02-23T00:34:02;2.08;;;1.20;;
37657;SDS011;23500;53.268;8.308;2024-02-23T00:36:28;1.27;;;1.00;;
37657;SDS011;23500;53.268;8.308;2024-02-23T00:38:54;1.98;;;1.20;;
37657;SDS011;23500;53.268;8.308;2024-02-23T00:41:19;2.97;;;1.27;;
37657;SDS011;23500;53.268;8.308;2024-02-23T00:43:45;2.50;;;1.30;;
37657;SDS011;23500;53.268;8.308;2024-02-23T00:46:12;2.33;;;1.00;;
37657;SDS011;23500;53.268;8.308;2024-02-23T00:48:39;2.13;;;1.27;;
37657;SDS011;23500;53.268;8.308;2024-02-23T00:51:05;2.88;;;1.02;;
37657;SDS011;23500;53.268;8.308;2024-02-23T00:53:32;1.83;;;1.02;;
37657;SDS011;23500;53.268;8.308;2024-02-23T00:55:58;2.55;;;1.30;;
37657;SDS011;23500;53.268;8.308;2024-02-23T00:58:24;1.38;;;1.10;;
37657;SDS011;23500;53.268;8.308;2024-02-23T01:00:49;1.60;;;1.20;;
37657;SDS011;23500;53.268;8.308;2024-02-23T01:03:15;1.42;;;1.00;;
37657;SDS011;23500;53.268;8.308;2024-02-23T01:05:41;1.40;;;1.05;;
37657;SDS011;23500;53.268;8.308;2024-02-23T01:08:07;1.30;;;0.90;;
37657;SDS011;23500;53.268;8.308;2024-02-23T01:10:33;1.55;;;1.00;;
37657;SDS011;23500;53.268;8.308;2024-02-23T01:12:59;4.53;;;1.40;;
37657;SDS011;23500;53.268;8.308;2024-02-23T01:15:25;1.45;;;0.90;;
37657;SDS011;23500;53.268;8.308;2024-02-23T01:17:51;2.13;;;1.20;;
37657;SDS011;23500;53.268;8.308;2024-02-23T01:20:16;2.13;;;1.08;;
37657;SDS011;23500;53.268;8.308;2024-02-23T01:22:42;3.25;;;1.00;;
37657;SDS011;23500;53.268;8.308;2024-02-23T01:25:08;2.13;;;1.00;;
37657;SDS011;23500;53.268;8.308;2024-02-23T01:27:34;1.50;;;1.05;;
37657;SDS011;23500;53.268;8.308;2024-02-23T01:29:59;1.58;;;1.08;;
37657;SDS011;23500;53.268;8.308;2024-02-23T01:32:25;2.10;;;1.10;;
37657;SDS011;23500;53.268;8.308;2024-02-23T01:34:51;1.67;;;1.10;;
37657;SDS011;23500;53.268;8.308;2024-02-23T01:37:17;1.02;;;0.90;;
37657;SDS011;23500;53.268;8.308;2024-02-23T01:39:43;0.98;;;0.90;;
37657;SDS011;23500;53.268;8.308;2024-02-23T01:42:08;2.55;;;1.10;;
37657;SDS011;23500;53.268;8.308;2024-02-23T01:44:34;1.55;;;1.00;;
37657;SDS011;23500;53.268;8.308;2024-02-23T01:47:00;1.60;;;0.90;;
37657;SDS011;23500;53.268;8.308;2024-02-23T01:49:26;1.42;;;1.00;;
37657;SDS011;23500;53.268;8.308;2024-02-23T01:51:57;1.25;;;0.95;;
37657;SDS011;23500;53.268;8.308;2024-02-23T01:54:23;0.88;;;0.80;;
37657;SDS011;23500;53.268;8.308;2024-02-23T01:56:54;1.45;;;0.80;;
37657;SDS011;23500;53.268;8.308;2024-02-23T01:59:21;1.23;;;0.88;;
37657;SDS011;23500;53.268;8.308;2024-02-23T02:01:48;0.85;;;0.80;;
37657;SDS011;23500;53.268;8.308;2024-02-23T02:04:14;1.50;;;0.93;;
37657;SDS011;23500;53.268;8.308;2024-02-23T02:06:39;1.13;;;0.77;;
37657;SDS011;23500;53.268;8.308;2024-02-23T02:09:05;1.52;;;0.80;;
37657;SDS011;23500;53.268;8.308;2024-02-23T02:11:31;1.05;;;0.60;;
37657;SDS011;23500;53.268;8.308;2024-02-23T02:13:57;1.27;;;0.88;;
37657;SDS011;23500;53.268;8.308;2024-02-23T02:16:23;1.05;;;0.90;;
37657;SDS011;23500;53.268;8.308;2024-02-23T02:18:48;1.58;;;0.90;;
37657;SDS011;23500;53.268;8.308;2024-02-23T02:21:14;2.03;;;0.95;;
37657;SDS011;23500;53.268;8.308;2024-02-23T02:23:40;1.75;;;0.90;;
37657;SDS011;23500;53.268;8.308;2024-02-23T02:26:06;1.10;;;0.70;;
37657;SDS011;23500;53.268;8.308;2024-02-23T02:28:31;0.95;;;0.70;;
37657;SDS011;23500;53.268;8.308;2024-02-23T02:30:57;1.63;;;0.82;;
37657;SDS011;23500;53.268;8.308;2024-02-23T02:33:23;1.20;;;0.70;;
37657;SDS011;23500;53.268;8.308;2024-02-23T02:35:49;1.00;;;0.75;;
37657;SDS011;23500;53.268;8.308;2024-02-23T02:38:15;1.17;;;0.80;;
37657;SDS011;23500;53.268;8.308;2024-02-23T02:40:41;1.25;;;0.80;;
37657;SDS011;23500;53.268;8.308;2024-02-23T02:43:06;0.90;;;0.65;;
37657;SDS011;23500;53.268;8.308;2024-02-23T02:45:33;0.95;;;0.90;;
37657;SDS011;23500;53.268;8.308;2024-02-23T02:48:01;1.05;;;0.70;;
37657;SDS011;23500;53.268;8.308;2024-02-23T02:50:27;0.90;;;0.70;;
37657;SDS011;23500;53.268;8.308;2024-02-23T02:52:53;0.85;;;0.73;;
37657;SDS011;23500;53.268;8.308;2024-02-23T02:55:19;1.13;;;0.75;;
37657;SDS011;23500;53.268;8.308;2024-02-23T02:57:45;1.08;;;0.70;;
37657;SDS011;23500;53.268;8.308;2024-02-23T03:00:11;0.60;;;0.60;;
37657;SDS011;23500;53.268;8.308;2024-02-23T03:02:37;0.93;;;0.70;;
37657;SDS011;23500;53.268;8.308;2024-02-23T03:05:02;0.60;;;0.60;;
37657;SDS011;23500;53.268;8.308;2024-02-23T03:07:28;1.42;;;0.70;;
37657;SDS011;23500;53.268;8.308;2024-02-23T03:09:54;1.15;;;0.70;;
37657;SDS011;23500;53.268;8.308;2024-02-23T03:12:20;0.70;;;0.63;;
37657;SDS011;23500;53.268;8.308;2024-02-23T03:14:45;0.80;;;0.70;;
37657;SDS011;23500;53.268;8.308;2024-02-23T03:17:11;1.13;;;0.73;;
37657;SDS011;23500;53.268;8.308;2024-02-23T03:19:37;0.70;;;0.60;;
37657;SDS011;23500;53.268;8.308;2024-02-23T03:22:04;0.77;;;0.70;;
37657;SDS011;23500;53.268;8.308;2024-02-23T03:24:29;1.02;;;0.70;;
37657;SDS011;23500;53.268;8.308;2024-02-23T03:26:55;1.02;;;0.60;;
37657;SDS011;23500;53.268;8.308;2024-02-23T03:29:21;0.52;;;0.40;;
37657;SDS011;23500;53.268;8.308;2024-02-23T03:31:54;1.52;;;0.80;;
37657;SDS011;23500;53.268;8.308;2024-02-23T03:34:20;1.05;;;0.60;;
37657;SDS011;23500;53.268;8.308;2024-02-23T03:36:46;0.77;;;0.73;;
37657;SDS011;23500;53.268;8.308;2024-02-23T03:39:12;0.50;;;0.50;;
37657;SDS011;23500;53.268;8.308;2024-02-23T03:41:37;1.40;;;0.80;;
37657;SDS011;23500;53.268;8.308;2024-02-23T03:44:03;1.17;;;0.60;;
37657;SDS011;23500;53.268;8.308;2024-02-23T03:46:29;0.80;;;0.50;;
37657;SDS011;23500;53.268;8.308;2024-02-23T03:48:55;0.50;;;0.50;;
37657;SDS011;23500;53.268;8.308;2024-02-23T03:51:21;1.35;;;0.60;;
37657;SDS011;23500;53.268;8.308;2024-02-23T03:53:47;0.75;;;0.65;;
37657;SDS011;23500;53.268;8.308;2024-02-23T03:56:12;0.80;;;0.60;;
37657;SDS011;23500;53.268;8.308;2024-02-23T03:58:39;0.73;;;0.57;;
37657;SDS011;23500;53.268;8.308;2024-02-23T04:01:05;1.27;;;0.68;;
37657;SDS011;23500;53.268;8.308;2024-02-23T04:03:31;0.50;;;0.50;;
37657;SDS011;23500;53.268;8.308;2024-02-23T04:05:56;0.77;;;0.60;;
37657;SDS011;23500;53.268;8.308;2024-02-23T04:08:22;0.85;;;0.65;;
37657;SDS011;23500;53.268;8.308;2024-02-23T04:10:48;1.15;;;0.60;;
37657;SDS011;23500;53.268;8.308;2024-02-23T04:13:13;0.65;;;0.55;;
37657;SDS011;23500;53.268;8.308;2024-02-23T04:15:40;0.73;;;0.60;;
37657;SDS011;23500;53.268;8.308;2024-02-23T04:18:06;0.60;;;0.60;;
37657;SDS011;23500;53.268;8.308;2024-02-23T04:20:32;0.80;;;0.60;;
37657;SDS011;23500;53.268;8.308;2024-02-23T04:22:58;1.30;;;0.50;;
37657;SDS011;23500;53.268;8.308;2024-02-23T04:25:23;0.55;;;0.50;;
37657;SDS011;23500;53.268;8.308;2024-02-23T04:27:49;0.60;;;0.50;;
37657;SDS011;23500;53.268;8.308;2024-02-23T04:30:15;0.65;;;0.60;;
37657;SDS011;23500;53.268;8.308;2024-02-23T04:32:41;0.75;;;0.60;;
37657;SDS011;23500;53.268;8.308;2024-02-23T04:35:07;0.88;;;0.50;;
37657;SDS011;23500;53.268;8.308;2024-02-23T04:37:33;0.50;;;0.50;;
37657;SDS011;23500;53.268;8.308;2024-02-23T04:39:59;0.60;;;0.50;;
37657;SDS011;23500;53.268;8.308;2024-02-23T04:42:25;0.63;;;0.52;;
37657;SDS011;23500;53.268;8.308;2024-02-23T04:44:50;0.50;;;0.50;;
37657;SDS011;23500;53.268;8.308;2024-02-23T04:47:19;0.68;;;0.50;;
37657;SDS011;23500;53.268;8.308;2024-02-23T04:49:45;0.75;;;0.60;;
37657;SDS011;23500;53.268;8.308;2024-02-23T04:52:11;0.60;;;0.57;;
37657;SDS011;23500;53.268;8.308;2024-02-23T04:54:36;0.43;;;0.43;;
37657;SDS011;23500;53.268;8.308;2024-02-23T04:57:02;0.45;;;0.40;;
37657;SDS011;23500;53.268;8.308;2024-02-23T04:59:28;1.05;;;0.50;;
37657;SDS011;23500;53.268;8.308;2024-02-23T05:01:55;0.55;;;0.50;;
37657;SDS011;23500;53.268;8.308;2024-02-23T05:04:20;0.40;;;0.40;;
37657;SDS011;23500;53.268;8.308;2024-02-23T05:06:46;0.52;;;0.50;;
37657;SDS011;23500;53.268;8.308;2024-02-23T05:09:12;0.55;;;0.40;;
37657;SDS011;23500;53.268;8.308;2024-02-23T05:11:38;1.52;;;0.55;;
37657;SDS011;23500;53.268;8.308;2024-02-23T05:14:04;1.10;;;0.40;;
37657;SDS011;23500;53.268;8.308;2024-02-23T05:16:31;0.80;;;0.60;;
37657;SDS011;23500;53.268;8.308;2024-02-23T05:18:56;0.77;;;0.50;;
37657;SDS011;23500;53.268;8.308;2024-02-23T05:21:22;0.47;;;0.40;;
37657;SDS011;23500;53.268;8.308;2024-02-23T05:23:48;0.75;;;0.57;;
37657;SDS011;23500;53.268;8.308;2024-02-23T05:26:14;0.57;;;0.40;;
37657;SDS011;23500;53.268;8.308;2024-02-23T05:28:40;0.77;;;0.57;;
37657;SDS011;23500;53.268;8.308;2024-02-23T05:31:06;0.40;;;0.40;;
37657;SDS011;23500;53.268;8.308;2024-02-23T05:33:32;0.80;;;0.50;;
37657;SDS011;23500;53.268;8.308;2024-02-23T05:35:58;0.73;;;0.50;;
37657;SDS011;23500;53.268;8.308;2024-02-23T05:38:23;0.65;;;0.50;;
37657;SDS011;23500;53.268;8.308;2024-02-23T05:40:49;0.50;;;0.50;;
37657;SDS011;23500;53.268;8.308;2024-02-23T05:43:14;0.57;;;0.40;;
37657;SDS011;23500;53.268;8.308;2024-02-23T05:45:40;0.73;;;0.50;;
37657;SDS011;23500;53.268;8.308;2024-02-23T05:48:06;0.80;;;0.52;;
37657;SDS011;23500;53.268;8.308;2024-02-23T05:50:32;0.60;;;0.43;;
37657;SDS011;23500;53.268;8.308;2024-02-23T05:52:58;0.68;;;0.50;;
37657;SDS011;23500;53.268;8.308;2024-02-23T05:55:23;0.40;;;0.40;;
37657;SDS011;23500;53.268;8.308;2024-02-23T05:57:49;1.10;;;0.50;;
37657;SDS011;23500;53.268;8.308;2024-02-23T06:00:18;1.02;;;0.50;;
37657;SDS011;23500;53.268;8.308;2024-02-23T06:02:44;0.73;;;0.50;;
37657;SDS011;23500;53.268;8.308;2024-02-23T06:05:11;0.57;;;0.43;;
37657;SDS011;23500;53.268;8.308;2024-02-23T06:07:37;0.40;;;0.35;;
37657;SDS011;23500;53.268;8.308;2024-02-23T06:10:03;1.00;;;0.60;;
37657;SDS011;23500;53.268;8.308;2024-02-23T06:12:30;0.60;;;0.50;;
37657;SDS011;23500;53.268;8.308;2024-02-23T06:14:55;0.60;;;0.40;;
37657;SDS011;23500;53.268;8.308;2024-02-23T06:17:22;0.45;;;0.35;;
37657;SDS011;23500;53.268;8.308;2024-02-23T06:19:48;0.40;;;0.40;;
37657;SDS011;23500;53.268;8.308;2024-02-23T06:22:14;0.73;;;0.38;;
37657;SDS011;23500;53.268;8.308;2024-02-23T06:24:42;0.70;;;0.50;;
37657;SDS011;23500;53.268;8.308;2024-02-23T06:27:07;0.38;;;0.30;;
37657;SDS011;23500;53.268;8.308;2024-02-23T06:29:33;0.30;;;0.30;;
37657;SDS011;23500;53.268;8.308;2024-02-23T06:31:59;0.82;;;0.40;;
37657;SDS011;23500;53.268;8.308;2024-02-23T06:34:26;0.40;;;0.40;;
37657;SDS011;23500;53.268;8.308;2024-02-23T06:36:52;0.40;;;0.40;;
37657;SDS011;23500;53.268;8.308;2024-02-23T06:39:17;0.73;;;0.50;;
37657;SDS011;23500;53.268;8.308;2024-02-23T06:41:45;0.40;;;0.40;;
37657;SDS011;23500;53.268;8.308;2024-02-23T06:44:10;0.68;;;0.50;;
37657;SDS011;23500;53.268;8.308;2024-02-23T06:46:36;0.30;;;0.30;;
37657;SDS011;23500;53.268;8.308;2024-02-23T06:49:02;0.30;;;0.30;;
37657;SDS011;23500;53.268;8.308;2024-02-23T06:51:29;0.40;;;0.40;;
37657;SDS011;23500;53.268;8.308;2024-02-23T06:53:56;0.40;;;0.40;;
37657;SDS011;23500;53.268;8.308;2024-02-23T06:56:22;0.55;;;0.50;;
37657;SDS011;23500;53.268;8.308;2024-02-23T06:58:48;0.38;;;0.38;;
37657;SDS011;23500;53.268;8.308;2024-02-23T07:01:13;0.43;;;0.40;;
37657;SDS011;23500;53.268;8.308;2024-02-23T07:03:39;0.50;;;0.40;;
37657;SDS011;23500;53.268;8.308;2024-02-23T07:06:07;0.38;;;0.30;;
37657;SDS011;23500;53.268;8.308;2024-02-23T07:08:35;0.80;;;0.57;;
37657;SDS011;23500;53.268;8.308;2024-02-23T07:11:01;0.40;;;0.40;;
37657;SDS011;23500;53.268;8.308;2024-02-23T07:13:27;0.55;;;0.45;;
37657;SDS011;23500;53.268;8.308;2024-02-23T07:15:52;0.38;;;0.38;;
37657;SDS011;23500;53.268;8.308;2024-02-23T07:18:18;0.30;;;0.30;;
37657;SDS011;23500;53.268;8.308;2024-02-23T07:20:44;0.70;;;0.40;;
37657;SDS011;23500;53.268;8.308;2024-02-23T07:23:09;0.70;;;0.50;;
37657;SDS011;23500;53.268;8.308;2024-02-23T07:25:35;0.30;;;0.30;;
37657;SDS011;23500;53.268;8.308;2024-02-23T07:28:01;0.30;;;0.30;;
37657;SDS011;23500;53.268;8.308;2024-02-23T07:30:27;0.40;;;0.40;;
37657;SDS011;23500;53.268;8.308;2024-02-23T07:32:53;0.60;;;0.40;;
37657;SDS011;23500;53.268;8.308;2024-02-23T07:35:19;0.35;;;0.35;;
37657;SDS011;23500;53.268;8.308;2024-02-23T07:37:44;0.30;;;0.30;;
37657;SDS011;23500;53.268;8.308;2024-02-23T07:40:11;0.35;;;0.35;;
37657;SDS011;23500;53.268;8.308;2024-02-23T07:42:37;0.60;;;0.40;;
37657;SDS011;23500;53.268;8.308;2024-02-23T07:45:03;0.35;;;0.30;;
37657;SDS011;23500;53.268;8.308;2024-02-23T07:47:33;0.40;;;0.40;;
37657;SDS011;23500;53.268;8.308;2024-02-23T07:49:59;0.40;;;0.40;;
37657;SDS011;23500;53.268;8.308;2024-02-23T07:52:25;0.40;;;0.40;;
37657;SDS011;23500;53.268;8.308;2024-02-23T07:54:53;0.43;;;0.30;;
37657;SDS011;23500;53.268;8.308;2024-02-23T07:57:20;0.32;;;0.30;;
37657;SDS011;23500;53.268;8.308;2024-02-23T07:59:45;0.77;;;0.30;;
37657;SDS011;23500;53.268;8.308;2024-02-23T08:02:12;0.40;;;0.40;;
37657;SDS011;23500;53.268;8.308;2024-02-23T08:04:39;0.30;;;0.30;;
37657;SDS011;23500;53.268;8.308;2024-02-23T08:07:05;0.40;;;0.40;;
37657;SDS011;23500;53.268;8.308;2024-02-23T08:09:30;0.65;;;0.40;;
37657;SDS011;23500;53.268;8.308;2024-02-23T08:11:57;0.38;;;0.38;;
37657;SDS011;23500;53.268;8.308;2024-02-23T08:14:23;0.70;;;0.40;;
37657;SDS011;23500;53.268;8.308;2024-02-23T08:16:48;0.38;;;0.38;;
37657;SDS011;23500;53.268;8.308;2024-02-23T08:19:15;0.60;;;0.40;;
37657;SDS011;23500;53.268;8.308;2024-02-23T08:21:40;1.08;;;0.40;;
37657;SDS011;23500;53.268;8.308;2024-02-23T08:24:06;0.38;;;0.38;;
37657;SDS011;23500;53.268;8.308;2024-02-23T08:26:32;0.65;;;0.50;;
37657;SDS011;23500;53.268;8.308;2024-02-23T08:28:59;0.68;;;0.40;;
37657;SDS011;23500;53.268;8.308;2024-02-23T08:31:24;0.50;;;0.30;;
37657;SDS011;23500;53.268;8.308;2024-02-23T08:33:50;0.50;;;0.40;;
37657;SDS011;23500;53.268;8.308;2024-02-23T08:36:16;0.60;;;0.50;;
37657;SDS011;23500;53.268;8.308;2024-02-23T08:38:41;0.82;;;0.50;;
37657;SDS011;23500;53.268;8.308;2024-02-23T08:41:07;0.63;;;0.50;;
37657;SDS011;23500;53.268;8.308;2024-02-23T08:43:33;0.52;;;0.40;;
37657;SDS011;23500;53.268;8.308;2024-02-23T08:45:59;0.50;;;0.40;;
37657;SDS011;23500;53.268;8.308;2024-02-23T08:48:25;1.95;;;0.50;;
37657;SDS011;23500;53.268;8.308;2024-02-23T08:50:51;0.47;;;0.45;;
37657;SDS011;23500;53.268;8.308;2024-02-23T08:53:16;0.40;;;0.40;;
37657;SDS011;23500;53.268;8.308;2024-02-23T08:55:43;0.73;;;0.57;;
37657;SDS011;23500;53.268;8.308;2024-02-23T08:58:09;2.80;;;0.63;;
37657;SDS011;23500;53.268;8.308;2024-02-23T09:00:35;0.85;;;0.50;;
37657;SDS011;23500;53.268;8.308;2024-02-23T09:03:02;1.60;;;0.50;;
37657;SDS011;23500;53.268;8.308;2024-02-23T09:05:28;0.50;;;0.40;;
37657;SDS011;23500;53.268;8.308;2024-02-23T09:07:54;0.88;;;0.50;;
37657;SDS011;23500;53.268;8.308;2024-02-23T09:10:20;0.45;;;0.40;;
37657;SDS011;23500;53.268;8.308;2024-02-23T09:12:45;0.60;;;0.50;;
37657;SDS011;23500;53.268;8.308;2024-02-23T09:15:11;0.43;;;0.40;;
37657;SDS011;23500;53.268;8.308;2024-02-23T09:17:37;0.50;;;0.40;;
37657;SDS011;23500;53.268;8.308;2024-02-23T09:20:05;0.68;;;0.30;;
37657;SDS011;23500;53.268;8.308;2024-02-23T09:22:32;0.60;;;0.40;;
37657;SDS011;23500;53.268;8.308;2024-02-23T09:24:58;0.32;;;0.30;;
37657;SDS011;23500;53.268;8.308;2024-02-23T09:27:23;0.95;;;0.55;;
37657;SDS011;23500;53.268;8.308;2024-02-23T09:29:49;0.85;;;0.50;;
37657;SDS011;23500;53.268;8.308;2024-02-23T09:32:15;0.75;;;0.50;;
37657;SDS011;23500;53.268;8.308;2024-02-23T09:34:40;0.52;;;0.40;;
37657;SDS011;23500;53.268;8.308;2024-02-23T09:37:06;0.50;;;0.47;;
37657;SDS011;23500;53.268;8.308;2024-02-23T09:39:32;0.80;;;0.60;;
37657;SDS011;23500;53.268;8.308;2024-02-23T09:41:57;0.77;;;0.60;;
37657;SDS011;23500;53.268;8.308;2024-02-23T09:44:23;1.35;;;0.60;;
37657;SDS011;23500;53.268;8.308;2024-02-23T09:46:51;0.75;;;0.50;;
37657;SDS011;23500;53.268;8.308;2024-02-23T09:49:17;0.75;;;0.50;;
37657;SDS011;23500;53.268;8.308;2024-02-23T09:51:43;0.93;;;0.60;;
37657;SDS011;23500;53.268;8.308;2024-02-23T09:54:09;0.95;;;0.50;;
37657;SDS011;23500;53.268;8.308;2024-02-23T09:56:35;0.40;;;0.40;;
37657;SDS011;23500;53.268;8.308;2024-02-23T09:59:02;0.88;;;0.45;;
37657;SDS011;23500;53.268;8.308;2024-02-23T10:01:30;0.70;;;0.40;;
37657;SDS011;23500;53.268;8.308;2024-02-23T10:03:58;0.70;;;0.57;;
37657;SDS011;23500;53.268;8.308;2024-02-23T10:06:25;0.70;;;0.50;;
37657;SDS011;23500;53.268;8.308;2024-02-23T10:08:51;0.93;;;0.50;;
37657;SDS011;23500;53.268;8.308;2024-02-23T10:11:22;0.88;;;0.50;;
37657;SDS011;23500;53.268;8.308;2024-02-23T10:13:48;0.32;;;0.32;;
37657;SDS011;23500;53.268;8.308;2024-02-23T10:16:15;0.85;;;0.50;;
37657;SDS011;23500;53.268;8.308;2024-02-23T10:18:41;1.13;;;0.68;;
37657;SDS011;23500;53.268;8.308;2024-02-23T10:21:07;0.73;;;0.47;;
37657;SDS011;23500;53.268;8.308;2024-02-23T10:23:33;0.75;;;0.60;;
37657;SDS011;23500;53.268;8.308;2024-02-23T10:25:58;1.00;;;0.50;;
37657;SDS011;23500;53.268;8.308;2024-02-23T10:28:24;1.13;;;0.55;;
37657;SDS011;23500;53.268;8.308;2024-02-23T10:30:50;0.77;;;0.50;;
37657;SDS011;23500;53.268;8.308;2024-02-23T10:33:16;0.65;;;0.55;;
37657;SDS011;23500;53.268;8.308;2024-02-23T10:35:47;0.77;;;0.50;;
37657;SDS011;23500;53.268;8.308;2024-02-23T10:38:18;0.70;;;0.55;;
37657;SDS011;23500;53.268;8.308;2024-02-23T10:40:45;0.95;;;0.55;;
37657;SDS011;23500;53.268;8.308;2024-02-23T10:43:16;1.02;;;0.50;;
37657;SDS011;23500;53.268;8.308;2024-02-23T10:45:48;0.50;;;0.40;;
37657;SDS011;23500;53.268;8.308;2024-02-23T10:48:14;1.40;;;0.50;;
37657;SDS011;23500;53.268;8.308;2024-02-23T10:50:40;0.50;;;0.50;;
37657;SDS011;23500;53.268;8.308;2024-02-23T10:53:09;0.35;;;0.35;;
37657;SDS011;23500;53.268;8.308;2024-02-23T10:55:36;0.40;;;0.40;;
37657;SDS011;23500;53.268;8.308;2024-02-23T10:58:06;0.65;;;0.43;;
37657;SDS011;23500;53.268;8.308;2024-02-23T11:00:36;0.45;;;0.45;;
37657;SDS011;23500;53.268;8.308;2024-02-23T11:03:02;1.02;;;0.52;;
37657;SDS011;23500;53.268;8.308;2024-02-23T11:05:29;1.75;;;0.60;;
37657;SDS011;23500;53.268;8.308;2024-02-23T11:07:56;0.80;;;0.40;;
37657;SDS011;23500;53.268;8.308;2024-02-23T11:10:22;0.50;;;0.50;;
37657;SDS011;23500;53.268;8.308;2024-02-23T11:12:59;0.73;;;0.57;;
37657;SDS011;23500;53.268;8.308;2024-02-23T11:15:29;0.60;;;0.40;;
37657;SDS011;23500;53.268;8.308;2024-02-23T11:17:57;0.90;;;0.50;;
37657;SDS011;23500;53.268;8.308;2024-02-23T11:20:22;1.40;;;0.40;;
37657;SDS011;23500;53.268;8.308;2024-02-23T11:22:51;0.98;;;0.60;;
37657;SDS011;23500;53.268;8.308;2024-02-23T11:25:20;1.30;;;0.60;;
37657;SDS011;23500;53.268;8.308;2024-02-23T11:27:52;0.40;;;0.40;;
37657;SDS011;23500;53.268;8.308;2024-02-23T11:30:17;0.50;;;0.50;;
37657;SDS011;23500;53.268;8.308;2024-02-23T11:32:44;0.40;;;0.40;;
37657;SDS011;23500;53.268;8.308;2024-02-23T11:35:12;0.40;;;0.40;;
37657;SDS011;23500;53.268;8.308;2024-02-23T11:37:47;1.13;;;0.60;;
37657;SDS011;23500;53.268;8.308;2024-02-23T11:40:15;0.75;;;0.57;;
37657;SDS011;23500;53.268;8.308;2024-02-23T11:42:42;1.73;;;0.75;;
37657;SDS011;23500;53.268;8.308;2024-02-23T11:45:08;0.82;;;0.60;;
37657;SDS011;23500;53.268;8.308;2024-02-23T11:47:36;0.88;;;0.50;;
37657;SDS011;23500;53.268;8.308;2024-02-23T11:50:02;1.38;;;0.50;;
37657;SDS011;23500;53.268;8.308;2024-02-23T11:52:29;0.85;;;0.50;;
37657;SDS011;23500;53.268;8.308;2024-02-23T11:54:55;0.40;;;0.40;;
37657;SDS011;23500;53.268;8.308;2024-02-23T11:57:21;1.00;;;0.52;;
37657;SDS011;23500;53.268;8.308;2024-02-23T11:59:47;0.77;;;0.55;;
37657;SDS011;23500;53.268;8.308;2024-02-23T12:02:15;1.63;;;0.55;;
37657;SDS011;23500;53.268;8.308;2024-02-23T12:04:41;2.28;;;0.45;;
37657;SDS011;23500;53.268;8.308;2024-02-23T12:07:06;0.68;;;0.47;;
37657;SDS011;23500;53.268;8.308;2024-02-23T12:09:33;0.90;;;0.57;;
37657;SDS011;23500;53.268;8.308;2024-02-23T12:11:59;0.68;;;0.40;;
37657;SDS011;23500;53.268;8.308;2024-02-23T12:14:24;0.52;;;0.45;;
37657;SDS011;23500;53.268;8.308;2024-02-23T12:16:51;1.63;;;0.50;;
37657;SDS011;23500;53.268;8.308;2024-02-23T12:19:17;1.42;;;0.50;;
37657;SDS011;23500;53.268;8.308;2024-02-23T12:21:46;1.33;;;0.60;;
37657;SDS011;23500;53.268;8.308;2024-02-23T12:24:12;1.00;;;0.50;;
37657;SDS011;23500;53.268;8.308;2024-02-23T12:26:37;0.95;;;0.50;;
37657;SDS011;23500;53.268;8.308;2024-02-23T12:29:03;1.15;;;0.60;;
37657;SDS011;23500;53.268;8.308;2024-02-23T12:31:31;1.08;;;0.68;;
37657;SDS011;23500;53.268;8.308;2024-02-23T12:33:57;1.90;;;0.47;;
37657;SDS011;23500;53.268;8.308;2024-02-23T12:36:23;1.25;;;0.52;;
37657;SDS011;23500;53.268;8.308;2024-02-23T12:38:49;1.52;;;0.60;;
37657;SDS011;23500;53.268;8.308;2024-02-23T12:41:15;0.73;;;0.43;;
37657;SDS011;23500;53.268;8.308;2024-02-23T12:43:40;0.65;;;0.40;;
37657;SDS011;23500;53.268;8.308;2024-02-23T12:46:06;1.67;;;0.50;;
37657;SDS011;23500;53.268;8.308;2024-02-23T12:48:34;2.35;;;0.70;;
37657;SDS011;23500;53.268;8.308;2024-02-23T12:51:00;1.02;;;0.50;;
37657;SDS011;23500;53.268;8.308;2024-02-23T12:56:01;1.33;;;0.60;;
37657;SDS011;23500;53.268;8.308;2024-02-23T12:58:28;0.45;;;0.43;;
37657;SDS011;23500;53.268;8.308;2024-02-23T13:00:53;0.95;;;0.52;;
37657;SDS011;23500;53.268;8.308;2024-02-23T13:03:20;0.45;;;0.45;;
37657;SDS011;23500;53.268;8.308;2024-02-23T13:05:46;0.85;;;0.57;;
37657;SDS011;23500;53.268;8.308;2024-02-23T13:08:12;0.98;;;0.60;;
37657;SDS011;23500;53.268;8.308;2024-02-23T13:10:38;0.73;;;0.45;;
37657;SDS011;23500;53.268;8.308;2024-02-23T13:13:04;1.13;;;0.43;;
37657;SDS011;23500;53.268;8.308;2024-02-23T13:15:30;0.93;;;0.55;;
37657;SDS011;23500;53.268;8.308;2024-02-23T13:17:55;1.60;;;0.57;;
37657;SDS011;23500;53.268;8.308;2024-02-23T13:20:22;1.42;;;0.50;;
37657;SDS011;23500;53.268;8.308;2024-02-23T13:22:48;1.10;;;0.50;;
37657;SDS011;23500;53.268;8.308;2024-02-23T13:25:15;0.88;;;0.50;;
37657;SDS011;23500;53.268;8.308;2024-02-23T13:27:40;1.40;;;0.50;;
37657;SDS011;23500;53.268;8.308;2024-02-23T13:30:06;0.80;;;0.70;;
37657;SDS011;23500;53.268;8.308;2024-02-23T13:32:32;1.70;;;0.70;;
37657;SDS011;23500;53.268;8.308;2024-02-23T13:34:58;0.90;;;0.50;;
37657;SDS011;23500;53.268;8.308;2024-02-23T13:37:24;0.98;;;0.47;;
37657;SDS011;23500;53.268;8.308;2024-02-23T13:39:51;0.63;;;0.47;;
37657;SDS011;23500;53.268;8.308;2024-02-23T13:42:16;1.08;;;0.60;;
37657;SDS011;23500;53.268;8.308;2024-02-23T13:44:42;2.35;;;0.77;;
37657;SDS011;23500;53.268;8.308;2024-02-23T13:47:08;0.88;;;0.55;;
37657;SDS011;23500;53.268;8.308;2024-02-23T13:49:36;1.65;;;0.60;;
37657;SDS011;23500;53.268;8.308;2024-02-23T13:52:02;0.75;;;0.50;;
37657;SDS011;23500;53.268;8.308;2024-02-23T13:54:28;1.02;;;0.50;;
37657;SDS011;23500;53.268;8.308;2024-02-23T13:56:53;1.75;;;0.73;;
37657;SDS011;23500;53.268;8.308;2024-02-23T13:59:19;1.35;;;0.68;;
37657;SDS011;23500;53.268;8.308;2024-02-23T14:01:45;0.70;;;0.50;;
37657;SDS011;23500;53.268;8.308;2024-02-23T14:04:10;0.40;;;0.40;;
37657;SDS011;23500;53.268;8.308;2024-02-23T14:06:36;0.98;;;0.50;;
37657;SDS011;23500;53.268;8.308;2024-02-23T14:09:02;0.93;;;0.50;;
37657;SDS011;23500;53.268;8.308;2024-02-23T14:11:29;0.77;;;0.60;;
37657;SDS011;23500;53.268;8.308;2024-02-23T14:13:55;1.38;;;0.50;;
37657;SDS011;23500;53.268;8.308;2024-02-23T14:16:22;1.08;;;0.50;;
37657;SDS011;23500;53.268;8.308;2024-02-23T14:18:48;0.52;;;0.50;;
37657;SDS011;23500;53.268;8.308;2024-02-23T14:21:14;0.85;;;0.50;;
37657;SDS011;23500;53.268;8.308;2024-02-23T14:23:41;0.65;;;0.50;;
37657;SDS011;23500;53.268;8.308;2024-02-23T14:26:07;1.15;;;0.60;;
37657;SDS011;23500;53.268;8.308;2024-02-23T14:28:33;0.50;;;0.50;;
37657;SDS011;23500;53.268;8.308;2024-02-23T14:30:59;1.52;;;0.57;;
37657;SDS011;23500;53.268;8.308;2024-02-23T14:33:25;0.50;;;0.50;;
37657;SDS011;23500;53.268;8.308;2024-02-23T14:35:51;0.85;;;0.57;;
37657;SDS011;23500;53.268;8.308;2024-02-23T14:38:16;0.63;;;0.50;;
37657;SDS011;23500;53.268;8.308;2024-02-23T14:40:42;0.65;;;0.45;;
37657;SDS011;23500;53.268;8.308;2024-02-23T14:43:08;1.27;;;0.65;;
37657;SDS011;23500;53.268;8.308;2024-02-23T14:45:35;0.88;;;0.50;;